createdAt,value
2023-09-27T00:00:39.419Z,100.00
2023-09-27T00:03:08.230Z,100.00
2023-09-27T00:05:38.139Z,100.00
2023-09-27T00:08:07.949Z,100.00
2023-09-27T00:10:36.576Z,100.00
2023-09-27T00:13:05.474Z,100.00
2023-09-27T00:15:34.011Z,100.00
2023-09-27T00:18:04.139Z,100.00
2023-09-27T00:20:33.757Z,98.58
2023-09-27T00:23:02.384Z,95.71
2023-09-27T00:25:31.207Z,95.80
2023-09-27T00:27:59.708Z,99.74
2023-09-27T00:30:28.217Z,100.00
2023-09-27T00:32:57.798Z,99.93
2023-09-27T00:35:27.978Z,100.00
2023-09-27T00:37:56.631Z,97.11
2023-09-27T00:40:26.316Z,97.24
2023-09-27T00:42:55.249Z,96.59
2023-09-27T00:45:23.751Z,99.36
2023-09-27T00:47:53.794Z,97.99
2023-09-27T00:50:22.649Z,99.45
2023-09-27T00:52:52.753Z,100.00
2023-09-27T00:55:22.554Z,100.00
2023-09-27T00:57:53.120Z,100.00
2023-09-27T01:00:23.253Z,100.00
2023-09-27T01:02:53.062Z,100.00
2023-09-27T01:05:22.812Z,100.00
2023-09-27T01:07:53.331Z,100.00
2023-09-27T01:10:22.326Z,100.00
2023-09-27T01:12:51.089Z,100.00
2023-09-27T01:15:19.770Z,100.00
2023-09-27T01:17:59.019Z,97.72
2023-09-27T01:20:29.772Z,100.00
2023-09-27T01:23:01.023Z,100.00
2023-09-27T01:25:31.906Z,97.97
2023-09-27T01:28:01.591Z,100.00
2023-09-27T01:30:33.842Z,98.54
2023-09-27T01:33:06.292Z,95.70
2023-09-27T01:35:35.377Z,100.00
2023-09-27T01:38:06.326Z,100.00
2023-09-27T01:40:53.484Z,99.26
2023-09-27T01:43:40.598Z,99.04
2023-09-27T01:46:27.968Z,99.63
2023-09-27T01:49:15.664Z,97.90
2023-09-27T01:52:03.354Z,97.27
2023-09-27T01:54:51.627Z,96.65
2023-09-27T01:57:39.254Z,100.00
2023-09-27T02:00:26.512Z,100.00
2023-09-27T02:03:13.724Z,100.00
2023-09-27T02:06:01.101Z,100.00
2023-09-27T02:08:48.567Z,96.35
2023-09-27T02:11:38.248Z,96.56
2023-09-27T02:14:25.263Z,96.00
2023-09-27T02:16:54.002Z,99.33
2023-09-27T02:19:22.690Z,98.85
2023-09-27T02:21:51.420Z,95.97
2023-09-27T02:24:20.113Z,100.00
2023-09-27T02:26:50.221Z,100.00
2023-09-27T02:29:18.905Z,96.66
2023-09-27T02:31:47.692Z,100.00
2023-09-27T02:34:18.271Z,100.00
2023-09-27T02:36:48.938Z,96.34
2023-09-27T02:39:17.842Z,97.32
2023-09-27T02:41:46.630Z,99.81
2023-09-27T02:44:16.596Z,100.00
2023-09-27T02:46:46.078Z,96.46
2023-09-27T02:49:14.996Z,94.89
2023-09-27T02:51:43.854Z,98.01
2023-09-27T02:54:12.790Z,95.15
2023-09-27T02:56:41.337Z,100.00
2023-09-27T02:59:09.910Z,98.51
2023-09-27T03:01:41.519Z,99.16
2023-09-27T03:04:11.546Z,100.00
2023-09-27T03:06:40.872Z,95.52
2023-09-27T03:09:11.156Z,98.96
2023-09-27T03:11:40.555Z,99.73
2023-09-27T03:14:09.085Z,96.06
2023-09-27T03:16:40.699Z,95.06
2023-09-27T03:19:12.854Z,95.82
2023-09-27T03:21:41.373Z,100.00
2023-09-27T03:24:10.718Z,100.00
2023-09-27T03:26:39.286Z,95.25
2023-09-27T03:29:07.830Z,94.76
2023-09-27T03:31:36.413Z,95.99
2023-09-27T03:34:06.610Z,94.75
2023-09-27T03:36:35.576Z,95.21
2023-09-27T03:39:05.466Z,98.54
2023-09-27T03:41:36.452Z,96.96
2023-09-27T03:44:06.452Z,95.35
2023-09-27T03:46:35.039Z,98.58
2023-09-27T03:49:05.101Z,95.53
2023-09-27T03:51:34.310Z,93.01
2023-09-27T03:54:02.926Z,93.10
2023-09-27T03:56:31.525Z,92.49
2023-09-27T03:59:00.210Z,93.85
2023-09-27T04:01:28.854Z,95.22
2023-09-27T04:03:59.612Z,98.50
2023-09-27T04:06:29.703Z,95.80
2023-09-27T04:08:58.234Z,94.68
2023-09-27T04:11:26.755Z,93.13
2023-09-27T04:13:55.597Z,92.89
2023-09-27T04:19:14.483Z,95.94
2023-09-27T04:21:44.712Z,96.42
2023-09-27T04:24:13.220Z,93.59
2023-09-27T04:26:41.747Z,92.86
2023-09-27T04:29:10.728Z,94.16
2023-09-27T04:31:39.522Z,92.67
2023-09-27T04:34:08.169Z,92.50
2023-09-27T04:36:37.490Z,96.62
2023-09-27T04:39:10.072Z,94.07
2023-09-27T04:41:38.630Z,94.81
2023-09-27T04:44:08.005Z,94.09
2023-09-27T04:46:36.627Z,93.15
2023-09-27T04:49:05.308Z,91.98
2023-09-27T04:51:33.874Z,92.74
2023-09-27T04:54:04.675Z,99.47
2023-09-27T04:56:35.835Z,100.00
2023-09-27T04:59:05.733Z,95.65
2023-09-27T05:01:34.399Z,93.93
2023-09-27T05:04:03.077Z,94.37
2023-09-27T05:06:31.614Z,93.18
2023-09-27T05:09:00.809Z,91.77
2023-09-27T05:11:29.522Z,91.72
2023-09-27T05:13:59.501Z,91.82
2023-09-27T05:16:28.457Z,95.54
2023-09-27T05:18:56.963Z,93.57
2023-09-27T05:21:25.691Z,93.50
2023-09-27T05:23:54.182Z,95.16
2023-09-27T05:26:22.755Z,93.64
2023-09-27T05:28:51.456Z,96.46
2023-09-27T05:31:21.754Z,94.72
2023-09-27T05:33:50.963Z,95.81
2023-09-27T05:36:19.468Z,93.98
2023-09-27T05:38:48.015Z,93.50
2023-09-27T05:41:16.574Z,100.00
2023-09-27T05:43:45.316Z,99.58
2023-09-27T05:46:13.921Z,96.30
2023-09-27T05:48:43.894Z,94.35
2023-09-27T05:51:12.472Z,92.84
2023-09-27T05:53:41.237Z,92.85
2023-09-27T05:56:09.895Z,96.24
2023-09-27T05:58:42.609Z,96.29
2023-09-27T06:01:12.094Z,97.63
2023-09-27T06:03:40.897Z,99.70
2023-09-27T06:06:11.037Z,99.16
2023-09-27T06:08:39.593Z,99.81
2023-09-27T06:11:09.283Z,95.70
2023-09-27T06:13:39.532Z,97.14
2023-09-27T06:16:15.956Z,98.88
2023-09-27T06:18:44.607Z,98.16
2023-09-27T06:21:15.329Z,97.75
2023-09-27T06:23:43.943Z,96.50
2023-09-27T06:26:13.874Z,94.74
2023-09-27T06:28:42.918Z,94.29
2023-09-27T06:31:11.941Z,93.33
2023-09-27T06:33:41.050Z,97.02
2023-09-27T06:36:10.129Z,99.26
2023-09-27T06:38:41.749Z,100.00
2023-09-27T06:41:11.029Z,98.33
2023-09-27T06:43:40.091Z,95.63
2023-09-27T06:46:11.670Z,98.49
2023-09-27T06:48:42.478Z,100.00
2023-09-27T06:51:12.818Z,100.00
2023-09-27T06:53:44.671Z,100.00
2023-09-27T06:56:13.245Z,100.00
2023-09-27T06:58:41.763Z,100.00
2023-09-27T07:01:11.368Z,100.00
2023-09-27T07:03:40.200Z,100.00
2023-09-27T07:06:09.142Z,100.00
2023-09-27T07:08:37.763Z,100.00
2023-09-27T07:11:09.494Z,100.00
2023-09-27T07:13:39.100Z,100.00
2023-09-27T07:16:22.366Z,100.00
2023-09-27T07:18:51.569Z,100.00
2023-09-27T07:21:26.005Z,100.00
2023-09-27T07:23:55.150Z,100.00
2023-09-27T07:26:25.052Z,100.00
2023-09-27T07:28:53.781Z,100.00
2023-09-27T07:31:22.796Z,100.00
2023-09-27T07:33:53.948Z,100.00
2023-09-27T07:36:26.465Z,100.00
2023-09-27T07:38:57.147Z,100.00
2023-09-27T07:41:29.249Z,100.00
2023-09-27T07:43:57.834Z,100.00
2023-09-27T07:46:26.671Z,100.00
2023-09-27T07:48:55.681Z,100.00
2023-09-27T07:51:24.288Z,100.00
2023-09-27T07:53:54.475Z,100.00
2023-09-27T07:56:25.295Z,100.00
2023-09-27T07:58:56.268Z,100.00
2023-09-27T08:01:26.211Z,100.00
2023-09-27T08:04:02.526Z,100.00
2023-09-27T08:06:31.130Z,100.00
2023-09-27T08:09:00.046Z,100.00
2023-09-27T08:11:29.176Z,100.00
2023-09-27T08:13:59.277Z,100.00
2023-09-27T08:16:27.873Z,100.00
2023-09-27T08:18:56.646Z,100.00
2023-09-27T08:21:26.271Z,100.00
2023-09-27T08:23:56.438Z,100.00
2023-09-27T08:26:26.812Z,98.07
2023-09-27T08:28:55.804Z,94.81
2023-09-27T08:31:26.986Z,91.41
2023-09-27T08:33:55.737Z,93.54
2023-09-27T08:36:24.240Z,93.00
2023-09-27T08:38:53.185Z,87.72
2023-09-27T08:41:26.038Z,85.24
2023-09-27T08:43:54.927Z,81.84
2023-09-27T08:46:26.805Z,83.06
2023-09-27T08:48:59.067Z,85.83
2023-09-27T08:51:28.447Z,77.44
2023-09-27T08:53:56.934Z,80.69
2023-09-27T08:56:26.268Z,78.89
2023-09-27T08:58:55.311Z,77.25
2023-09-27T09:01:25.697Z,75.27
2023-09-27T09:03:55.453Z,76.10
2023-09-27T09:06:25.082Z,82.07
2023-09-27T09:08:54.194Z,82.33
2023-09-27T09:11:24.657Z,78.16
2023-09-27T09:13:58.624Z,80.38
2023-09-27T09:16:29.007Z,80.23
2023-09-27T09:18:59.017Z,79.06
2023-09-27T09:21:27.882Z,82.75
2023-09-27T09:23:57.232Z,80.78
2023-09-27T09:26:31.183Z,74.39
2023-09-27T09:29:02.092Z,69.48
2023-09-27T09:31:34.358Z,61.50
2023-09-27T09:34:08.238Z,70.86
2023-09-27T09:36:38.393Z,71.69
2023-09-27T09:39:15.181Z,75.61
2023-09-27T09:41:48.122Z,68.38
2023-09-27T09:44:21.354Z,68.78
2023-09-27T09:46:53.246Z,61.37
2023-09-27T09:49:22.934Z,63.11
2023-09-27T09:51:54.331Z,68.47
2023-09-27T09:54:31.249Z,61.35
2023-09-27T09:57:10.192Z,62.81
2023-09-27T09:59:52.189Z,61.91
2023-09-27T10:02:28.393Z,58.77
2023-09-27T10:05:00.398Z,62.23
2023-09-27T10:07:31.215Z,59.80
2023-09-27T10:10:00.386Z,59.41
2023-09-27T10:12:29.600Z,54.67
2023-09-27T10:14:58.931Z,52.66
2023-09-27T10:17:31.314Z,59.80
2023-09-27T10:20:14.990Z,54.43
2023-09-27T10:22:44.940Z,57.40
2023-09-27T10:25:37.298Z,58.07
2023-09-27T10:28:13.479Z,53.45
2023-09-27T10:31:10.646Z,57.89
2023-09-27T10:33:42.127Z,54.25
2023-09-27T10:36:31.812Z,54.87
2023-09-27T10:39:07.842Z,53.74
2023-09-27T10:41:52.554Z,53.64
2023-09-27T10:44:31.767Z,56.38
2023-09-27T10:47:02.463Z,59.07
2023-09-27T10:49:39.436Z,58.53
2023-09-27T10:52:17.923Z,56.33
2023-09-27T10:54:46.889Z,52.63
2023-09-27T10:57:15.824Z,56.12
2023-09-27T10:59:45.507Z,54.94
2023-09-27T11:02:14.125Z,58.66
2023-09-27T11:04:47.366Z,54.56
2023-09-27T11:07:16.288Z,58.91
2023-09-27T11:09:46.294Z,47.76
2023-09-27T11:12:24.168Z,50.85
2023-09-27T11:14:54.137Z,49.92
2023-09-27T11:17:26.620Z,50.32
2023-09-27T11:19:57.654Z,54.52
2023-09-27T11:22:27.549Z,54.08
2023-09-27T11:24:56.341Z,49.08
2023-09-27T11:27:25.609Z,55.48
2023-09-27T11:29:54.462Z,51.67
2023-09-27T11:32:23.720Z,49.10
2023-09-27T11:34:58.404Z,46.40
2023-09-27T11:37:29.782Z,48.92
2023-09-27T11:39:58.878Z,55.74
2023-09-27T11:42:28.948Z,51.89
2023-09-27T11:45:06.307Z,51.97
2023-09-27T11:47:46.846Z,51.36
2023-09-27T11:50:18.272Z,50.44
2023-09-27T11:52:48.350Z,45.05
2023-09-27T11:55:17.849Z,53.49
2023-09-27T11:57:46.362Z,52.05
2023-09-27T12:00:18.016Z,50.87
2023-09-27T12:02:56.623Z,50.81
2023-09-27T12:05:28.986Z,49.83
2023-09-27T12:07:57.833Z,46.83
2023-09-27T12:10:26.522Z,45.92
2023-09-27T12:12:56.102Z,43.82
2023-09-27T12:15:24.833Z,46.16
2023-09-27T12:17:53.665Z,43.18
2023-09-27T12:20:38.499Z,46.27
2023-09-27T12:23:11.908Z,44.60
2023-09-27T12:25:40.600Z,47.57
2023-09-27T12:28:09.115Z,45.50
2023-09-27T12:30:38.409Z,46.01
2023-09-27T12:33:07.233Z,41.80
2023-09-27T12:35:36.209Z,48.99
2023-09-27T12:38:07.280Z,44.17
2023-09-27T12:40:38.179Z,42.87
2023-09-27T12:43:08.908Z,46.86
2023-09-27T12:45:41.239Z,49.47
2023-09-27T12:48:10.461Z,45.56
2023-09-27T12:50:45.581Z,47.87
2023-09-27T12:53:14.299Z,44.23
2023-09-27T12:55:44.804Z,46.25
2023-09-27T12:58:15.173Z,44.57
2023-09-27T13:00:44.564Z,48.87
2023-09-27T13:03:13.420Z,44.66
2023-09-27T13:05:42.086Z,46.25
2023-09-27T13:08:11.628Z,47.06
2023-09-27T13:10:43.546Z,49.45
2023-09-27T13:13:13.531Z,45.58
2023-09-27T13:15:42.153Z,45.98
2023-09-27T13:18:10.881Z,51.07
2023-09-27T13:20:39.544Z,47.14
2023-09-27T13:23:08.342Z,51.93
2023-09-27T13:25:37.059Z,51.97
2023-09-27T13:28:06.983Z,53.03
2023-09-27T13:30:38.032Z,53.77
2023-09-27T13:33:07.525Z,52.06
2023-09-27T13:35:37.146Z,50.08
2023-09-27T13:38:09.343Z,52.22
2023-09-27T13:40:37.982Z,49.96
2023-09-27T13:43:06.942Z,50.00
2023-09-27T13:45:37.392Z,49.45
2023-09-27T13:48:07.828Z,48.00
2023-09-27T13:50:37.329Z,44.49
2023-09-27T13:53:07.437Z,49.56
2023-09-27T13:55:35.997Z,51.20
2023-09-27T13:58:05.205Z,45.79
2023-09-27T14:00:33.835Z,47.44
2023-09-27T14:03:06.924Z,46.76
2023-09-27T14:05:35.932Z,51.99
2023-09-27T14:08:04.886Z,53.23
2023-09-27T14:10:33.750Z,51.76
2023-09-27T14:13:03.312Z,52.46
2023-09-27T14:15:32.558Z,52.98
2023-09-27T14:18:01.716Z,52.65
2023-09-27T14:20:31.910Z,53.26
2023-09-27T14:23:00.703Z,52.32
2023-09-27T14:25:29.434Z,54.02
2023-09-27T14:27:58.861Z,51.71
2023-09-27T14:30:27.669Z,51.46
2023-09-27T14:35:25.882Z,47.35
2023-09-27T14:37:55.808Z,46.98
2023-09-27T14:40:25.181Z,47.77
2023-09-27T14:42:53.941Z,50.41
2023-09-27T14:45:31.320Z,48.00
2023-09-27T14:48:02.985Z,47.83
2023-09-27T14:50:31.612Z,48.38
2023-09-27T14:53:01.586Z,47.28
2023-09-27T14:55:31.554Z,54.15
2023-09-27T14:58:00.777Z,53.48
2023-09-27T15:00:32.964Z,50.72
2023-09-27T15:03:01.913Z,50.32
2023-09-27T15:05:30.506Z,47.84
2023-09-27T15:08:00.470Z,51.58
2023-09-27T15:10:29.340Z,49.58
2023-09-27T15:12:57.867Z,49.47
2023-09-27T15:15:27.296Z,47.55
2023-09-27T15:17:55.842Z,45.99
2023-09-27T15:20:24.392Z,48.89
2023-09-27T15:22:53.136Z,46.78
2023-09-27T15:25:23.295Z,51.35
2023-09-27T15:27:52.040Z,48.75
2023-09-27T15:30:20.719Z,53.30
2023-09-27T15:32:49.238Z,49.24
2023-09-27T15:35:18.101Z,49.18
2023-09-27T15:37:53.191Z,45.28
2023-09-27T15:40:24.594Z,49.51
2023-09-27T15:42:53.887Z,50.25
2023-09-27T15:45:24.304Z,55.53
2023-09-27T15:47:54.283Z,54.54
2023-09-27T15:50:23.117Z,56.86
2023-09-27T15:52:52.340Z,58.66
2023-09-27T15:55:23.595Z,61.03
2023-09-27T15:57:52.168Z,59.46
2023-09-27T16:00:20.770Z,59.93
2023-09-27T16:02:49.313Z,60.96
2023-09-27T16:05:17.932Z,58.65
2023-09-27T16:07:46.538Z,62.54
2023-09-27T16:10:15.284Z,64.77
2023-09-27T16:12:45.401Z,66.03
2023-09-27T16:15:14.080Z,63.87
2023-09-27T16:17:42.614Z,65.45
2023-09-27T16:20:13.366Z,66.20
2023-09-27T16:22:43.094Z,66.90
2023-09-27T16:25:12.151Z,68.71
2023-09-27T16:27:41.198Z,67.02
2023-09-27T16:30:13.102Z,68.78
2023-09-27T16:32:42.942Z,72.33
2023-09-27T16:35:11.907Z,69.60
2023-09-27T16:37:40.434Z,68.71
2023-09-27T16:40:10.410Z,67.79
2023-09-27T16:42:39.244Z,68.90
2023-09-27T16:45:09.242Z,70.39
2023-09-27T16:47:40.482Z,71.98
2023-09-27T16:50:11.338Z,74.02
2023-09-27T16:52:40.311Z,74.51
2023-09-27T16:55:09.877Z,74.06
2023-09-27T16:57:39.996Z,76.47
2023-09-27T17:00:12.393Z,75.89
2023-09-27T17:02:44.352Z,77.08
2023-09-27T17:08:19.762Z,80.29
2023-09-27T17:10:48.804Z,80.75
2023-09-27T17:13:17.723Z,80.44
2023-09-27T17:15:46.554Z,80.64
2023-09-27T17:18:16.548Z,82.83
2023-09-27T17:20:45.057Z,81.02
2023-09-27T17:23:13.567Z,82.51
2023-09-27T17:25:42.223Z,84.61
2023-09-27T17:28:11.938Z,83.20
2023-09-27T17:30:40.506Z,83.59
2023-09-27T17:33:09.076Z,83.06
2023-09-27T17:35:39.088Z,81.83
2023-09-27T17:38:09.941Z,84.66
2023-09-27T17:40:38.872Z,81.94
2023-09-27T17:43:07.406Z,85.35
2023-09-27T17:45:36.038Z,85.96
2023-09-27T17:48:05.122Z,81.11
2023-09-27T17:50:34.048Z,86.21
2023-09-27T17:53:04.056Z,87.82
2023-09-27T17:55:32.854Z,88.91
2023-09-27T17:58:01.439Z,85.40
2023-09-27T18:00:30.446Z,82.02
2023-09-27T18:02:59.393Z,85.25
2023-09-27T18:05:28.011Z,82.70
2023-09-27T18:07:56.675Z,82.72
2023-09-27T18:10:26.608Z,87.99
2023-09-27T18:12:55.224Z,88.60
2023-09-27T18:15:28.293Z,86.71
2023-09-27T18:17:57.566Z,84.50
2023-09-27T18:20:26.497Z,88.56
2023-09-27T18:22:55.040Z,87.67
2023-09-27T18:25:25.192Z,88.52
2023-09-27T18:27:55.086Z,87.19
2023-09-27T18:30:23.807Z,85.51
2023-09-27T18:32:52.419Z,86.86
2023-09-27T18:35:21.178Z,87.80
2023-09-27T18:37:49.862Z,87.25
2023-09-27T18:40:20.482Z,91.62
2023-09-27T18:42:49.296Z,87.66
2023-09-27T18:45:19.249Z,90.28
2023-09-27T18:47:51.096Z,91.47
2023-09-27T18:50:20.940Z,92.13
2023-09-27T18:52:50.590Z,91.16
2023-09-27T18:55:19.174Z,89.05
2023-09-27T18:57:47.826Z,87.12
2023-09-27T19:00:18.516Z,90.75
2023-09-27T19:02:49.131Z,89.84
2023-09-27T19:05:17.900Z,91.63
2023-09-27T19:07:46.465Z,88.83
2023-09-27T19:10:14.971Z,86.66
2023-09-27T19:12:43.474Z,92.80
2023-09-27T19:15:13.062Z,90.78
2023-09-27T19:17:43.040Z,88.57
2023-09-27T19:20:12.475Z,86.96
2023-09-27T19:22:41.125Z,95.26
2023-09-27T19:25:10.337Z,88.83
2023-09-27T19:27:38.898Z,85.23
2023-09-27T19:30:09.884Z,87.25
2023-09-27T19:32:38.677Z,91.61
2023-09-27T19:35:09.697Z,93.94
2023-09-27T19:37:38.201Z,88.83
2023-09-27T19:40:08.486Z,86.32
2023-09-27T19:42:37.001Z,91.15
2023-09-27T19:45:06.676Z,92.05
2023-09-27T19:47:36.561Z,90.73
2023-09-27T19:50:10.874Z,92.65
2023-09-27T19:52:39.663Z,89.26
2023-09-27T19:55:10.677Z,86.68
2023-09-27T19:57:39.787Z,89.30
2023-09-27T20:00:19.293Z,86.91
2023-09-27T20:02:48.439Z,85.83
2023-09-27T20:05:19.255Z,91.35
2023-09-27T20:07:49.251Z,95.11
2023-09-27T20:10:18.232Z,89.87
2023-09-27T20:12:47.040Z,94.33
2023-09-27T20:15:15.600Z,88.26
2023-09-27T20:17:45.443Z,86.87
2023-09-27T20:20:14.334Z,91.28
2023-09-27T20:22:44.839Z,91.07
2023-09-27T20:25:13.597Z,96.47
2023-09-27T20:27:42.161Z,91.07
2023-09-27T20:30:13.014Z,89.53
2023-09-27T20:32:41.667Z,91.37
2023-09-27T20:35:11.202Z,88.98
2023-09-27T20:37:39.985Z,92.31
2023-09-27T20:40:11.877Z,88.11
2023-09-27T20:42:40.617Z,93.48
2023-09-27T20:45:10.985Z,89.05
2023-09-27T20:47:40.019Z,91.06
2023-09-27T20:50:12.143Z,92.87
2023-09-27T20:52:40.960Z,93.52
2023-09-27T20:55:12.139Z,99.19
2023-09-27T20:57:41.152Z,91.48
2023-09-27T21:00:11.441Z,90.78
2023-09-27T21:02:40.854Z,94.35
2023-09-27T21:05:10.307Z,97.22
2023-09-27T21:07:39.495Z,97.77
2023-09-27T21:10:10.539Z,98.55
2023-09-27T21:12:39.071Z,90.74
2023-09-27T21:15:09.478Z,94.88
2023-09-27T21:17:38.040Z,95.46
2023-09-27T21:20:08.528Z,93.83
2023-09-27T21:22:37.152Z,96.47
2023-09-27T21:25:07.181Z,91.11
2023-09-27T21:27:37.078Z,94.05
2023-09-27T21:30:07.521Z,96.78
2023-09-27T21:32:36.459Z,99.76
2023-09-27T21:35:05.803Z,91.77
2023-09-27T21:37:34.422Z,95.32
2023-09-27T21:40:02.953Z,97.38
2023-09-27T21:42:31.495Z,99.55
2023-09-27T21:45:01.360Z,94.37
2023-09-27T21:47:30.061Z,98.69
2023-09-27T21:49:58.637Z,97.64
2023-09-27T21:52:31.538Z,93.66
2023-09-27T21:55:00.103Z,98.89
2023-09-27T21:57:28.695Z,93.29
2023-09-27T21:59:57.192Z,95.15
2023-09-27T22:02:28.196Z,92.33
2023-09-27T22:04:57.106Z,95.05
2023-09-27T22:07:25.671Z,95.73
2023-09-27T22:09:54.379Z,93.27
2023-09-27T22:12:22.963Z,90.92
2023-09-27T22:14:51.513Z,95.65
2023-09-27T22:17:21.382Z,94.90
2023-09-27T22:19:51.523Z,96.98
2023-09-27T22:22:22.461Z,90.74
2023-09-27T22:24:53.762Z,94.34
2023-09-27T22:27:27.776Z,91.18
2023-09-27T22:29:57.413Z,100.00
2023-09-27T22:32:26.178Z,93.04
2023-09-27T22:34:57.400Z,92.67
2023-09-27T22:37:25.947Z,91.78
2023-09-27T22:40:08.336Z,90.20
2023-09-27T22:42:42.922Z,93.18
2023-09-27T22:45:29.455Z,93.40
2023-09-27T22:48:00.090Z,93.28
2023-09-27T22:50:31.344Z,93.70
2023-09-27T22:53:01.552Z,95.18
2023-09-27T22:55:30.514Z,95.12
2023-09-27T22:57:59.110Z,98.30
2023-09-27T23:00:32.395Z,91.71
2023-09-27T23:03:01.061Z,93.02
2023-09-27T23:05:34.444Z,89.46
2023-09-27T23:08:10.544Z,99.45
2023-09-27T23:10:40.825Z,94.11
2023-09-27T23:13:25.639Z,93.29
2023-09-27T23:15:55.957Z,97.28
2023-09-27T23:18:27.839Z,96.57
2023-09-27T23:20:59.868Z,93.00
2023-09-27T23:23:37.593Z,95.62
2023-09-27T23:26:05.357Z,92.50
2023-09-27T23:28:47.588Z,93.01
2023-09-27T23:31:19.420Z,94.21
2023-09-27T23:33:49.170Z,93.07
2023-09-27T23:36:25.119Z,93.24
2023-09-27T23:39:04.809Z,92.71
2023-09-27T23:41:34.477Z,95.52
2023-09-27T23:44:02.225Z,96.85
2023-09-27T23:46:31.074Z,94.01
2023-09-27T23:49:03.369Z,94.09
2023-09-27T23:51:34.711Z,98.56
2023-09-27T23:54:04.115Z,96.14
2023-09-27T23:56:33.127Z,100.00
2023-09-27T23:59:09.506Z,97.78
